createdAt,value
2022-12-27T00:00:52.758Z,51.27
2022-12-27T00:03:20.113Z,48.83
2022-12-27T00:05:48.146Z,57.37
2022-12-27T00:08:15.603Z,62.70
2022-12-27T00:10:42.575Z,57.23
2022-12-27T00:13:09.593Z,52.77
2022-12-27T00:15:38.092Z,51.10
2022-12-27T00:18:05.109Z,54.00
2022-12-27T00:20:32.035Z,55.17
2022-12-27T00:23:01.411Z,59.90
2022-12-27T00:25:28.472Z,54.88
2022-12-27T00:27:55.433Z,50.90
2022-12-27T00:30:22.306Z,57.43
2022-12-27T00:32:49.158Z,55.50
2022-12-27T00:35:16.134Z,54.87
2022-12-27T00:37:43.042Z,56.47
2022-12-27T00:40:10.692Z,64.67
2022-12-27T00:42:37.572Z,71.73
2022-12-27T00:45:05.961Z,62.17
2022-12-27T00:47:32.860Z,90.80
2022-12-27T00:49:59.706Z,79.83
2022-12-27T00:52:26.537Z,87.97
2022-12-27T00:54:53.445Z,81.67
2022-12-27T00:57:20.581Z,81.47
2022-12-27T00:59:48.117Z,84.77
2022-12-27T01:02:15.028Z,83.87
2022-12-27T01:04:41.907Z,77.60
2022-12-27T01:07:08.982Z,80.53
2022-12-27T01:09:35.838Z,83.00
2022-12-27T01:12:02.761Z,82.43
2022-12-27T01:14:29.676Z,98.33
2022-12-27T01:16:56.601Z,100.57
2022-12-27T01:19:23.794Z,96.33
2022-12-27T01:21:50.625Z,96.70
2022-12-27T01:24:17.558Z,94.07
2022-12-27T01:26:44.465Z,84.90
2022-12-27T01:29:14.369Z,89.70
2022-12-27T01:31:41.316Z,102.83
2022-12-27T01:34:08.234Z,106.10
2022-12-27T01:36:35.115Z,106.17
2022-12-27T01:39:02.160Z,98.37
2022-12-27T01:42:07.581Z,101.03
2022-12-27T01:44:40.374Z,98.93
2022-12-27T01:47:13.140Z,101.47
2022-12-27T01:49:45.302Z,98.27
2022-12-27T01:52:13.720Z,95.63
2022-12-27T01:54:41.825Z,107.03
2022-12-27T01:57:09.985Z,102.43
2022-12-27T01:59:37.784Z,106.87
2022-12-27T02:02:05.492Z,100.43
2022-12-27T02:04:33.165Z,89.93
2022-12-27T02:07:00.999Z,94.03
2022-12-27T02:09:41.614Z,95.67
2022-12-27T02:12:10.008Z,100.17
2022-12-27T02:14:46.548Z,94.00
2022-12-27T02:17:17.556Z,90.33
2022-12-27T02:20:01.905Z,65.60
2022-12-27T02:23:24.983Z,92.10
2022-12-27T02:26:21.048Z,83.13
2022-12-27T02:29:02.882Z,59.00
2022-12-27T02:31:32.612Z,88.57
2022-12-27T02:34:01.004Z,86.27
2022-12-27T02:36:32.878Z,85.17
2022-12-27T02:39:02.506Z,79.60
2022-12-27T02:41:52.421Z,74.57
2022-12-27T02:44:38.717Z,77.43
2022-12-27T02:47:41.645Z,74.40
2022-12-27T02:50:29.931Z,83.80
2022-12-27T02:53:08.883Z,80.20
2022-12-27T02:56:09.563Z,82.57
2022-12-27T02:58:56.771Z,86.10
2022-12-27T03:02:15.659Z,84.83
2022-12-27T03:05:06.978Z,86.72
2022-12-27T03:08:00.288Z,81.27
2022-12-27T03:11:07.595Z,85.47
2022-12-27T03:14:14.498Z,84.33
2022-12-27T03:16:58.140Z,86.20
2022-12-27T03:19:46.247Z,83.97
2022-12-27T03:22:33.314Z,88.83
2022-12-27T03:25:21.419Z,82.17
2022-12-27T03:28:10.807Z,77.13
2022-12-27T05:03:04.444Z,77.67
2022-12-27T05:05:31.653Z,76.13
2022-12-27T05:08:18.409Z,76.43
2022-12-27T05:11:03.865Z,87.97
2022-12-27T05:13:49.205Z,86.93
2022-12-27T05:16:16.132Z,94.40
2022-12-27T05:18:44.166Z,86.83
2022-12-27T05:21:11.188Z,84.17
2022-12-27T05:24:01.727Z,94.43
2022-12-27T06:54:19.475Z,92.00
2022-12-27T06:56:46.306Z,123.07
2022-12-27T06:59:13.595Z,123.47
2022-12-27T07:01:42.039Z,104.03
2022-12-27T07:04:10.028Z,103.00
2022-12-27T07:06:37.983Z,102.70
2022-12-27T07:09:04.925Z,97.27
2022-12-27T07:11:36.736Z,81.73
2022-12-27T07:14:04.416Z,81.60
2022-12-27T07:16:31.853Z,78.90
2022-12-27T07:18:59.645Z,85.73
2022-12-27T07:21:28.882Z,77.17
2022-12-27T07:23:56.539Z,75.72
2022-12-27T07:26:30.508Z,78.87
2022-12-27T07:29:00.155Z,78.10
2022-12-27T07:31:29.979Z,79.03
2022-12-27T07:33:57.929Z,76.60
2022-12-27T07:36:27.916Z,84.30
2022-12-27T07:38:55.230Z,75.70
2022-12-27T07:41:22.198Z,80.40
2022-12-27T07:43:49.363Z,77.77
2022-12-27T07:46:19.691Z,72.17
2022-12-27T07:48:47.712Z,70.97
2022-12-27T07:51:16.380Z,75.20
2022-12-27T07:53:44.383Z,70.57
2022-12-27T07:56:13.705Z,67.73
2022-12-27T07:58:42.804Z,71.55
2022-12-27T08:01:11.440Z,76.72
2022-12-27T08:03:40.320Z,76.97
2022-12-27T08:06:09.157Z,69.50
2022-12-27T08:08:40.756Z,70.00
2022-12-27T08:11:08.364Z,67.33
2022-12-27T08:13:35.981Z,69.33
2022-12-27T08:16:03.389Z,69.87
2022-12-27T08:18:30.431Z,66.17
2022-12-27T08:20:57.407Z,64.40
2022-12-27T08:23:25.838Z,65.00
2022-12-27T08:25:52.868Z,62.50
2022-12-27T08:28:20.416Z,63.77
2022-12-27T08:30:48.458Z,60.93
2022-12-27T08:33:15.732Z,63.93
2022-12-27T08:35:54.871Z,57.90
2022-12-27T08:38:22.659Z,57.03
2022-12-27T08:40:49.543Z,54.40
2022-12-27T08:43:16.414Z,54.03
2022-12-27T08:45:43.687Z,55.00
2022-12-27T08:48:10.678Z,58.92
2022-12-27T08:50:37.689Z,57.22
2022-12-27T08:53:06.470Z,54.53
2022-12-27T08:55:35.071Z,52.97
2022-12-27T08:58:12.193Z,52.00
2022-12-27T09:00:43.064Z,58.50
2022-12-27T09:03:12.006Z,58.88
2022-12-27T09:05:41.912Z,57.03
2022-12-27T09:08:11.666Z,55.90
2022-12-27T09:13:05.676Z,55.20
2022-12-27T09:15:32.660Z,47.83
2022-12-27T09:17:59.782Z,42.25
2022-12-27T09:20:27.489Z,39.55
2022-12-27T09:22:54.399Z,40.10
2022-12-27T09:25:22.694Z,30.20
2022-12-27T09:27:49.794Z,27.03
2022-12-27T09:30:16.740Z,25.38
2022-12-27T09:32:43.595Z,23.75
2022-12-27T09:35:11.274Z,20.42
2022-12-27T09:37:38.349Z,21.15
2022-12-27T09:40:05.942Z,25.30
2022-12-27T09:42:56.676Z,25.02
2022-12-27T09:45:43.040Z,24.35
2022-12-27T09:48:18.208Z,29.65
2022-12-27T09:51:10.901Z,28.45
2022-12-27T09:53:53.364Z,35.40
2022-12-27T09:56:40.815Z,38.40
2022-12-27T09:59:20.775Z,39.97
2022-12-27T10:01:49.217Z,39.65
2022-12-27T10:04:18.086Z,43.43
2022-12-27T10:06:50.767Z,44.95
2022-12-27T10:09:55.084Z,44.25
2022-12-27T10:12:31.602Z,40.70
2022-12-27T10:15:04.611Z,42.20
2022-12-27T10:17:31.441Z,44.35
2022-12-27T10:20:04.850Z,41.15
2022-12-27T10:22:41.281Z,41.40
2022-12-27T10:25:18.653Z,40.50
2022-12-27T10:27:47.293Z,40.80
2022-12-27T10:30:20.507Z,38.17
2022-12-27T10:32:48.436Z,41.92
2022-12-27T10:35:20.298Z,42.25
2022-12-27T10:37:49.256Z,40.88
2022-12-27T10:40:41.597Z,43.60
2022-12-27T10:43:25.571Z,45.88
2022-12-27T10:45:53.372Z,43.60
2022-12-27T10:48:28.890Z,33.30
2022-12-27T10:51:08.977Z,31.17
2022-12-27T10:53:52.496Z,25.40
2022-12-27T10:56:26.944Z,19.25
2022-12-27T10:59:11.977Z,19.67
2022-12-27T11:01:39.767Z,16.20
2022-12-27T11:04:14.481Z,15.18
2022-12-27T11:07:08.703Z,17.38
2022-12-27T11:12:15.476Z,23.63
2022-12-27T11:14:58.187Z,23.15
2022-12-27T11:17:52.254Z,23.65
2022-12-27T11:20:30.861Z,27.15
2022-12-27T11:22:57.827Z,30.98
2022-12-27T11:25:27.278Z,29.38
2022-12-27T11:28:06.561Z,26.50
2022-12-27T11:30:37.551Z,23.73
2022-12-27T11:33:24.551Z,22.98
2022-12-27T11:35:54.425Z,21.70
2022-12-27T11:38:26.036Z,20.20
2022-12-27T11:41:37.958Z,19.60
2022-12-27T11:44:40.161Z,19.52
2022-12-27T11:47:12.516Z,19.60
2022-12-27T11:50:27.235Z,19.35
2022-12-27T11:53:12.815Z,21.17
2022-12-27T11:55:45.476Z,22.88
2022-12-27T11:58:46.268Z,25.70
2022-12-27T12:01:38.022Z,25.15
2022-12-27T12:04:32.118Z,22.67
2022-12-27T12:07:29.961Z,22.25
2022-12-27T12:10:30.400Z,22.40
2022-12-27T12:13:18.949Z,23.58
2022-12-27T12:16:01.156Z,25.45
2022-12-27T12:18:39.947Z,22.98
2022-12-27T12:21:37.012Z,26.67
2022-12-27T12:24:22.031Z,24.90
2022-12-27T12:27:19.050Z,30.25
2022-12-27T12:30:04.609Z,33.15
2022-12-27T12:32:43.710Z,34.33
2022-12-27T12:35:38.148Z,28.10
2022-12-27T12:38:20.267Z,22.98
2022-12-27T12:41:05.361Z,18.23
2022-12-27T12:44:01.727Z,18.55
2022-12-27T12:46:44.763Z,12.43
2022-12-27T12:49:40.314Z,8.82
2022-12-27T12:52:10.002Z,6.50
2022-12-27T12:54:51.994Z,6.90
2022-12-27T12:57:37.684Z,6.28
2022-12-27T13:00:32.539Z,10.80
2022-12-27T13:03:36.523Z,16.17
2022-12-27T13:06:20.221Z,10.95
2022-12-27T13:09:05.856Z,6.18
2022-12-27T13:11:51.506Z,3.13
2022-12-27T13:14:43.463Z,3.78
2022-12-27T13:17:22.052Z,2.95
2022-12-27T13:20:08.242Z,3.70
2022-12-27T13:22:54.056Z,3.90
2022-12-27T13:25:37.756Z,4.40
2022-12-27T13:28:31.428Z,4.72
2022-12-27T13:31:04.143Z,4.30
2022-12-27T13:33:43.540Z,4.72
2022-12-27T13:36:24.391Z,4.05
2022-12-27T13:39:08.631Z,3.22
2022-12-27T13:41:47.533Z,3.15
2022-12-27T13:44:43.654Z,3.70
2022-12-27T13:47:42.403Z,7.93
2022-12-27T13:50:15.460Z,41.25
2022-12-27T13:53:12.287Z,6.88
2022-12-27T13:55:51.221Z,4.80
2022-12-27T13:58:21.031Z,4.30
2022-12-27T14:01:09.770Z,7.90
2022-12-27T14:03:55.042Z,6.68
2022-12-27T14:06:59.459Z,7.80
2022-12-27T14:09:44.629Z,7.68
2022-12-27T14:12:45.479Z,8.20
2022-12-27T14:15:16.924Z,6.43
2022-12-27T14:18:07.076Z,9.50
2022-12-27T14:20:59.252Z,8.45
2022-12-27T14:23:31.842Z,28.25
2022-12-27T14:26:23.425Z,10.80
2022-12-27T14:29:05.325Z,8.02
2022-12-27T14:32:09.453Z,8.07
2022-12-27T14:35:04.036Z,8.93
2022-12-27T14:37:40.115Z,5.97
2022-12-27T14:40:38.172Z,7.07
2022-12-27T14:43:10.777Z,6.00
2022-12-27T14:45:53.823Z,6.72
2022-12-27T14:48:48.964Z,6.78
2022-12-27T14:51:59.382Z,7.95
2022-12-27T14:54:42.167Z,7.20
2022-12-27T14:57:20.934Z,8.73
2022-12-27T14:59:50.415Z,12.70
2022-12-27T15:02:23.209Z,10.93
2022-12-27T15:05:26.105Z,11.02
2022-12-27T15:08:20.108Z,11.93
2022-12-27T15:11:08.512Z,11.02
2022-12-27T15:13:53.847Z,10.35
2022-12-27T15:17:01.107Z,9.52
2022-12-27T15:19:40.053Z,18.00
2022-12-27T15:22:45.548Z,10.55
2022-12-27T15:25:29.641Z,11.18
2022-12-27T15:28:19.932Z,17.70
2022-12-27T15:31:09.999Z,12.45
2022-12-27T15:33:48.932Z,13.18
2022-12-27T15:36:18.740Z,10.23
2022-12-27T15:38:55.340Z,6.38
2022-12-27T15:41:59.616Z,6.35
2022-12-27T15:45:01.820Z,5.07
2022-12-27T15:47:38.319Z,7.53
2022-12-27T15:50:31.230Z,5.50
2022-12-27T15:53:27.483Z,7.05
2022-12-27T15:56:20.522Z,8.00
2022-12-27T15:59:25.990Z,7.28
2022-12-27T16:02:27.494Z,9.13
2022-12-27T16:04:56.968Z,7.43
2022-12-27T16:10:31.148Z,10.17
2022-12-27T16:13:13.213Z,10.43
2022-12-27T16:15:48.095Z,11.07
2022-12-27T16:18:18.091Z,11.05
2022-12-27T16:20:57.099Z,10.55
2022-12-27T16:23:31.623Z,13.95
2022-12-27T16:26:16.788Z,9.40
2022-12-27T16:28:57.401Z,11.10
2022-12-27T16:31:30.081Z,14.80
2022-12-27T16:33:59.323Z,31.30
2022-12-27T16:36:30.219Z,48.08
2022-12-27T16:39:00.243Z,14.93
2022-12-27T16:41:54.540Z,16.27
2022-12-27T16:44:24.604Z,27.75
2022-12-27T16:47:25.494Z,27.45
2022-12-27T16:50:07.537Z,38.95
2022-12-27T16:52:34.362Z,11.32
2022-12-27T16:55:26.693Z,14.47
2022-12-27T16:58:13.645Z,12.43
2022-12-27T17:00:46.353Z,6.03
2022-12-27T17:03:21.121Z,5.32
2022-12-27T17:06:21.586Z,4.97
2022-12-27T17:08:37.087Z,7.60
2022-12-27T17:11:24.002Z,10.57
2022-12-27T17:13:57.164Z,8.33
2022-12-27T17:16:29.601Z,8.03
2022-12-27T17:19:08.005Z,8.53
2022-12-27T17:21:38.006Z,6.87
2022-12-27T17:24:20.263Z,7.10
2022-12-27T17:27:11.381Z,5.03
2022-12-27T17:29:44.377Z,4.97
2022-12-27T17:32:38.236Z,6.47
2022-12-27T17:35:28.745Z,7.43
2022-12-27T17:38:11.564Z,6.83
2022-12-27T17:40:50.331Z,8.60
2022-12-27T17:44:07.192Z,6.30
2022-12-27T17:47:01.942Z,6.87
2022-12-27T17:49:32.436Z,14.13
2022-12-27T17:52:20.448Z,17.07
2022-12-27T17:55:06.638Z,19.87
2022-12-27T17:57:52.353Z,41.90
2022-12-27T18:00:25.439Z,37.93
2022-12-27T18:02:55.328Z,30.37
2022-12-27T18:05:30.535Z,31.77
2022-12-27T18:08:30.837Z,27.77
2022-12-27T18:11:00.080Z,9.77
2022-12-27T18:13:30.923Z,21.33
2022-12-27T18:15:58.924Z,10.67
2022-12-27T18:18:32.193Z,14.40
2022-12-27T18:21:01.882Z,16.10
2022-12-27T18:23:28.901Z,14.63
2022-12-27T18:26:02.843Z,15.27
2022-12-27T18:28:34.493Z,18.03
2022-12-27T18:31:17.172Z,13.97
2022-12-27T18:34:08.575Z,13.43
2022-12-27T18:36:51.308Z,15.00
2022-12-27T18:39:27.873Z,18.73
2022-12-27T18:41:55.900Z,9.90
2022-12-27T18:44:30.518Z,9.67
2022-12-27T18:47:02.560Z,13.93
2022-12-27T18:49:38.560Z,17.20
2022-12-27T18:52:22.249Z,13.53
2022-12-27T18:54:49.362Z,13.10
2022-12-27T18:57:31.675Z,14.00
2022-12-27T19:00:15.310Z,15.57
2022-12-27T19:02:42.928Z,14.57
2022-12-27T19:05:19.229Z,15.07
2022-12-27T19:08:11.342Z,6.37
2022-12-27T19:10:46.425Z,4.23
2022-12-27T19:13:28.192Z,5.90
2022-12-27T19:15:56.823Z,9.33
2022-12-27T19:18:27.769Z,19.70
2022-12-27T19:20:57.759Z,46.33
2022-12-27T19:23:34.131Z,12.60
2022-12-27T19:26:05.919Z,14.60
2022-12-27T19:28:34.501Z,18.20
2022-12-27T19:31:06.421Z,23.38
2022-12-27T19:33:36.038Z,23.33
2022-12-27T19:36:07.218Z,22.17
2022-12-27T19:38:34.824Z,19.00
2022-12-27T19:41:04.294Z,17.27
2022-12-27T19:43:38.309Z,13.87
2022-12-27T19:46:05.625Z,13.20
2022-12-27T19:48:32.507Z,11.33
2022-12-27T19:50:59.731Z,13.00
2022-12-27T19:53:36.349Z,14.83
2022-12-27T19:56:03.760Z,17.10
2022-12-27T19:58:31.211Z,17.43
2022-12-27T20:00:58.630Z,10.33
2022-12-27T20:03:26.308Z,12.30
2022-12-27T20:06:13.724Z,13.90
2022-12-27T20:08:45.343Z,14.03
2022-12-27T20:16:12.275Z,12.30
2022-12-27T20:18:40.568Z,11.57
2022-12-27T20:21:07.987Z,9.20
2022-12-27T20:23:35.095Z,11.57
2022-12-27T20:26:03.162Z,11.90
2022-12-27T20:28:30.177Z,13.77
2022-12-27T20:30:57.579Z,7.93
2022-12-27T20:33:26.846Z,11.20
2022-12-27T20:35:59.582Z,11.23
2022-12-27T20:38:26.636Z,14.13
2022-12-27T20:40:53.555Z,28.40
2022-12-27T20:43:20.605Z,34.73
2022-12-27T20:45:48.340Z,40.33
2022-12-27T20:48:15.254Z,30.33
2022-12-27T20:50:42.196Z,28.67
2022-12-27T20:53:09.111Z,26.50
2022-12-27T20:55:36.298Z,22.43
2022-12-27T20:58:03.435Z,21.87
2022-12-27T21:00:30.364Z,17.17
2022-12-27T21:02:57.847Z,16.83
2022-12-27T21:05:24.758Z,14.20
2022-12-27T21:07:51.811Z,11.83
2022-12-27T21:10:18.798Z,14.60
2022-12-27T21:12:45.719Z,8.47
2022-12-27T21:15:12.616Z,9.47
2022-12-27T21:17:39.522Z,7.33
2022-12-27T21:20:11.115Z,8.43
2022-12-27T21:22:38.280Z,7.03
2022-12-27T21:25:05.596Z,7.40
2022-12-27T21:27:32.418Z,9.03
2022-12-27T21:29:59.289Z,13.13
2022-12-27T21:32:26.192Z,7.87
2022-12-27T21:34:53.123Z,10.00
2022-12-27T21:37:20.699Z,13.67
2022-12-27T21:39:47.674Z,11.50
2022-12-27T21:42:14.700Z,16.63
2022-12-27T21:44:41.560Z,16.73
2022-12-27T21:47:08.445Z,15.93
2022-12-27T21:49:35.346Z,15.20
2022-12-27T21:52:02.200Z,14.97
2022-12-27T21:54:29.103Z,15.00
2022-12-27T21:56:55.963Z,13.97
2022-12-27T21:59:22.878Z,13.87
2022-12-27T22:01:52.405Z,11.57
2022-12-27T22:04:21.806Z,12.87
2022-12-27T22:06:49.443Z,14.20
2022-12-27T22:09:16.399Z,13.03
2022-12-27T22:11:43.320Z,13.47
2022-12-27T22:14:10.639Z,14.50
2022-12-27T22:16:39.818Z,10.67
2022-12-27T22:19:11.475Z,10.88
2022-12-27T22:21:39.657Z,9.27
2022-12-27T22:24:07.235Z,7.97
2022-12-27T22:26:39.957Z,6.77
2022-12-27T22:29:08.183Z,10.77
2022-12-27T22:31:38.274Z,11.23
2022-12-27T22:34:06.182Z,9.70
2022-12-27T22:36:33.817Z,11.90
2022-12-27T22:39:01.719Z,10.63
2022-12-27T22:41:31.099Z,9.23
2022-12-27T22:46:26.746Z,7.47
2022-12-27T22:49:00.109Z,7.57
2022-12-27T22:51:30.284Z,6.90
2022-12-27T22:53:58.453Z,6.97
2022-12-27T22:56:30.830Z,7.20
2022-12-27T22:58:58.676Z,9.57
2022-12-27T23:01:33.160Z,9.63
2022-12-27T23:04:02.362Z,8.80
2022-12-27T23:06:30.554Z,9.70
2022-12-27T23:08:58.015Z,10.67
2022-12-27T23:11:28.190Z,12.37
2022-12-27T23:14:06.439Z,11.43
2022-12-27T23:16:42.275Z,10.60
2022-12-27T23:19:09.750Z,10.30
2022-12-27T23:21:37.159Z,11.10
2022-12-27T23:24:04.666Z,10.70
2022-12-27T23:26:31.528Z,11.40
2022-12-27T23:28:58.864Z,10.27
2022-12-27T23:31:26.491Z,9.53
2022-12-27T23:33:53.776Z,7.93
2022-12-27T23:36:21.384Z,8.80
2022-12-27T23:38:48.713Z,9.70
2022-12-27T23:41:18.395Z,9.87
2022-12-27T23:43:54.180Z,9.67
